createdAt,value
2018-03-27T00:00:48.579Z,89.80
2018-03-27T00:03:16.666Z,89.80
2018-03-27T00:05:44.654Z,88.30
2018-03-27T00:08:13.016Z,88.30
2018-03-27T00:10:40.620Z,88.10
2018-03-27T00:13:08.214Z,88.00
2018-03-27T00:15:35.822Z,87.10
2018-03-27T00:18:03.382Z,86.90
2018-03-27T00:20:30.947Z,86.10
2018-03-27T00:22:58.562Z,84.10
2018-03-27T00:25:26.085Z,82.40
2018-03-27T00:28:05.394Z,81.10
2018-03-27T00:30:44.725Z,81.10
2018-03-27T00:33:24.181Z,81.80
2018-03-27T00:36:03.490Z,80.60
2018-03-27T00:38:43.203Z,81.20
2018-03-27T00:50:10.058Z,81.80
2018-03-27T00:52:38.981Z,81.80
2018-03-27T00:55:07.962Z,82.40
2018-03-27T00:57:37.562Z,82.20
2018-03-27T01:00:05.945Z,80.60
2018-03-27T01:02:33.513Z,81.10
2018-03-27T01:05:06.615Z,80.00
2018-03-27T01:07:34.734Z,80.40
2018-03-27T01:10:02.571Z,81.70
2018-03-27T01:12:30.201Z,83.30
2018-03-27T01:14:57.784Z,84.90
2018-03-27T01:17:26.226Z,86.00
2018-03-27T01:19:53.747Z,86.20
2018-03-27T01:22:21.702Z,85.80
2018-03-27T01:24:49.336Z,85.80
2018-03-27T01:27:16.926Z,85.10
2018-03-27T01:29:44.494Z,84.00
2018-03-27T01:32:12.503Z,83.20
2018-03-27T01:34:40.966Z,83.90
2018-03-27T01:37:08.513Z,81.70
2018-03-27T01:39:36.718Z,82.30
2018-03-27T01:42:05.157Z,82.30
2018-03-27T01:44:32.748Z,84.30
2018-03-27T01:47:00.299Z,85.90
2018-03-27T01:49:28.212Z,88.20
2018-03-27T01:51:55.917Z,88.20
2018-03-27T01:54:23.817Z,88.60
2018-03-27T01:56:51.496Z,89.00
2018-03-27T01:59:19.156Z,88.80
2018-03-27T02:01:46.807Z,88.90
2018-03-27T02:04:14.438Z,88.80
2018-03-27T02:06:42.949Z,88.00
2018-03-27T02:09:10.559Z,87.20
2018-03-27T02:11:43.842Z,86.00
2018-03-27T02:14:17.057Z,86.70
2018-03-27T02:16:55.061Z,88.70
2018-03-27T02:19:28.981Z,88.70
2018-03-27T02:21:56.086Z,90.50
2018-03-27T02:24:24.955Z,92.40
2018-03-27T02:26:54.214Z,93.50
2018-03-27T02:29:22.180Z,95.20
2018-03-27T02:31:50.638Z,95.90
2018-03-27T02:34:18.205Z,95.90
2018-03-27T02:36:45.749Z,96.00
2018-03-27T02:39:13.396Z,96.50
2018-03-27T02:41:41.185Z,96.20
2018-03-27T02:44:08.766Z,96.40
2018-03-27T02:46:37.548Z,96.80
2018-03-27T02:49:05.730Z,96.30
2018-03-27T02:51:33.341Z,96.30
2018-03-27T02:54:01.552Z,96.00
2018-03-27T02:56:29.097Z,95.90
2018-03-27T02:58:56.684Z,95.80
2018-03-27T03:01:24.289Z,95.10
2018-03-27T03:03:51.823Z,93.80
2018-03-27T03:06:19.341Z,93.60
2018-03-27T03:08:46.944Z,93.50
2018-03-27T03:11:14.493Z,93.90
2018-03-27T03:13:42.416Z,93.80
2018-03-27T03:16:09.997Z,93.80
2018-03-27T03:18:37.569Z,93.70
2018-03-27T03:21:05.523Z,92.60
2018-03-27T03:23:33.050Z,92.60
2018-03-27T03:26:00.597Z,92.30
2018-03-27T03:28:28.186Z,92.60
2018-03-27T03:30:56.829Z,92.80
2018-03-27T03:33:24.388Z,93.30
2018-03-27T03:35:52.483Z,94.00
2018-03-27T03:38:20.116Z,94.40
2018-03-27T03:40:48.061Z,95.00
2018-03-27T03:43:16.643Z,95.10
2018-03-27T03:45:44.252Z,95.10
2018-03-27T03:48:11.846Z,95.10
2018-03-27T03:50:39.799Z,95.70
2018-03-27T03:53:07.435Z,95.70
2018-03-27T03:55:34.961Z,96.00
2018-03-27T03:58:02.629Z,96.20
2018-03-27T04:00:30.199Z,96.60
2018-03-27T04:02:58.456Z,96.60
2018-03-27T04:05:25.963Z,96.40
2018-03-27T04:07:53.729Z,96.40
2018-03-27T04:10:23.874Z,96.70
2018-03-27T04:12:52.855Z,97.10
2018-03-27T04:15:20.944Z,97.50
2018-03-27T04:17:49.382Z,97.70
2018-03-27T04:20:29.975Z,97.60
2018-03-27T04:23:00.277Z,97.60
2018-03-27T04:25:27.867Z,97.70
2018-03-27T04:28:11.936Z,97.50
2018-03-27T04:30:39.895Z,97.50
2018-03-27T04:33:07.454Z,97.30
2018-03-27T04:35:35.033Z,97.30
2018-03-27T04:38:03.094Z,97.00
2018-03-27T04:40:30.676Z,97.00
2018-03-27T04:42:58.272Z,97.00
2018-03-27T04:45:25.813Z,97.10
2018-03-27T04:47:53.361Z,96.90
2018-03-27T04:50:20.900Z,97.10
2018-03-27T04:52:48.844Z,97.20
2018-03-27T04:55:16.401Z,97.20
2018-03-27T04:57:44.601Z,97.20
2018-03-27T05:00:14.282Z,97.20
2018-03-27T05:02:42.721Z,97.20
2018-03-27T05:05:10.250Z,97.70
2018-03-27T05:07:38.218Z,98.80
2018-03-27T05:10:06.498Z,98.90
2018-03-27T05:12:35.098Z,98.90
2018-03-27T05:15:03.039Z,98.60
2018-03-27T05:17:30.593Z,98.60
2018-03-27T05:19:58.138Z,98.50
2018-03-27T05:22:25.686Z,97.90
2018-03-27T05:24:53.285Z,97.70
2018-03-27T05:27:20.821Z,97.90
2018-03-27T05:29:48.386Z,97.80
2018-03-27T05:32:15.982Z,97.80
2018-03-27T05:34:43.573Z,97.80
2018-03-27T05:37:11.118Z,97.60
2018-03-27T05:39:38.709Z,97.50
2018-03-27T05:42:06.277Z,97.80
2018-03-27T05:44:33.849Z,98.00
2018-03-27T05:47:01.442Z,98.00
2018-03-27T05:49:28.967Z,98.10
2018-03-27T05:51:56.553Z,98.10
2018-03-27T05:54:24.552Z,98.80
2018-03-27T05:56:52.122Z,98.80
2018-03-27T05:59:19.683Z,98.50
2018-03-27T06:01:47.290Z,98.30
2018-03-27T06:04:16.796Z,98.70
2018-03-27T06:06:44.730Z,98.30
2018-03-27T06:09:12.313Z,98.30
2018-03-27T06:11:39.870Z,98.60
2018-03-27T06:14:07.885Z,98.50
2018-03-27T06:16:35.453Z,98.10
2018-03-27T06:19:03.033Z,98.00
2018-03-27T06:21:30.618Z,97.80
2018-03-27T06:23:58.201Z,97.50
2018-03-27T06:26:26.454Z,97.10
2018-03-27T06:28:54.015Z,96.30
2018-03-27T06:31:21.569Z,95.50
2018-03-27T06:33:49.132Z,94.90
2018-03-27T06:36:17.155Z,94.70
2018-03-27T06:38:44.698Z,94.50
2018-03-27T06:41:12.306Z,93.80
2018-03-27T06:43:39.888Z,92.50
2018-03-27T06:46:07.949Z,90.90
2018-03-27T06:48:35.546Z,89.50
2018-03-27T06:51:06.345Z,88.20
2018-03-27T06:53:34.201Z,87.30
2018-03-27T06:56:01.784Z,86.70
2018-03-27T06:58:31.112Z,86.50
2018-03-27T07:00:58.652Z,86.50
2018-03-27T07:03:26.791Z,85.40
2018-03-27T07:05:55.487Z,85.50
2018-03-27T07:08:23.045Z,86.50
2018-03-27T07:10:50.553Z,87.60
2018-03-27T07:13:18.155Z,88.00
2018-03-27T07:15:45.973Z,87.00
2018-03-27T07:18:13.953Z,87.90
2018-03-27T07:20:41.818Z,87.90
2018-03-27T07:23:09.474Z,87.90
2018-03-27T07:25:37.088Z,87.90
2018-03-27T07:28:05.462Z,86.10
2018-03-27T07:30:33.046Z,85.60
2018-03-27T07:33:00.841Z,84.20
2018-03-27T07:35:28.499Z,83.90
2018-03-27T07:37:57.196Z,82.50
2018-03-27T07:40:24.773Z,82.40
2018-03-27T07:42:52.343Z,82.20
2018-03-27T07:45:20.611Z,82.30
2018-03-27T07:47:48.169Z,80.80
2018-03-27T07:50:15.735Z,80.30
2018-03-27T07:52:43.304Z,81.10
2018-03-27T07:55:10.894Z,79.20
2018-03-27T07:57:38.556Z,78.50
2018-03-27T08:00:06.124Z,78.70
2018-03-27T08:02:34.089Z,76.80
2018-03-27T08:05:02.077Z,74.80
2018-03-27T08:07:29.998Z,73.80
2018-03-27T08:09:57.565Z,73.80
2018-03-27T08:12:25.169Z,71.80
2018-03-27T08:14:53.610Z,72.40
2018-03-27T08:17:21.219Z,74.20
2018-03-27T08:19:48.838Z,74.40
2018-03-27T08:22:16.466Z,74.40
2018-03-27T08:24:44.065Z,72.70
2018-03-27T08:27:11.609Z,70.70
2018-03-27T08:29:39.175Z,71.30
2018-03-27T08:32:06.756Z,70.70
2018-03-27T08:34:34.758Z,70.40
2018-03-27T08:37:02.309Z,70.40
2018-03-27T08:39:29.877Z,70.10
2018-03-27T08:41:57.494Z,70.30
2018-03-27T08:44:25.003Z,71.50
2018-03-27T08:46:52.570Z,72.50
2018-03-27T08:49:20.184Z,73.70
2018-03-27T08:51:48.416Z,71.00
2018-03-27T08:54:16.056Z,71.10
2018-03-27T08:56:43.622Z,71.20
2018-03-27T08:59:11.201Z,71.80
2018-03-27T09:01:38.769Z,70.90
2018-03-27T09:04:07.215Z,71.20
2018-03-27T09:06:34.824Z,69.60
2018-03-27T09:09:02.385Z,68.40
2018-03-27T09:11:30.206Z,67.80
2018-03-27T09:13:57.745Z,69.00
2018-03-27T09:16:25.413Z,70.50
2018-03-27T09:18:52.955Z,69.10
2018-03-27T09:21:20.989Z,67.60
2018-03-27T09:23:48.528Z,67.60
2018-03-27T09:26:16.111Z,65.60
2018-03-27T09:28:43.755Z,65.10
2018-03-27T09:31:12.097Z,66.30
2018-03-27T09:33:39.662Z,62.90
2018-03-27T09:36:07.250Z,62.10
2018-03-27T09:38:34.916Z,62.80
2018-03-27T09:41:02.499Z,63.00
2018-03-27T09:43:30.084Z,64.10
2018-03-27T09:45:58.040Z,60.20
2018-03-27T09:48:25.606Z,60.20
2018-03-27T09:50:53.632Z,59.30
2018-03-27T09:53:21.255Z,59.30
2018-03-27T09:55:49.564Z,58.80
2018-03-27T09:58:17.855Z,58.80
2018-03-27T10:00:50.338Z,58.10
2018-03-27T10:03:17.937Z,58.40
2018-03-27T10:05:46.088Z,53.80
2018-03-27T10:08:13.661Z,53.80
2018-03-27T10:10:41.215Z,55.80
2018-03-27T10:13:09.206Z,54.70
2018-03-27T10:15:36.798Z,54.70
2018-03-27T10:18:04.342Z,52.30
2018-03-27T10:20:31.894Z,53.40
2018-03-27T10:22:59.479Z,51.40
2018-03-27T10:25:27.034Z,52.50
2018-03-27T10:27:54.618Z,52.50
2018-03-27T10:30:22.257Z,50.50
2018-03-27T10:32:49.956Z,50.10
2018-03-27T10:35:17.556Z,50.70
2018-03-27T10:37:45.164Z,50.70
2018-03-27T10:40:12.855Z,47.10
2018-03-27T10:42:40.477Z,51.10
2018-03-27T10:45:08.056Z,47.40
2018-03-27T10:47:35.694Z,50.30
2018-03-27T10:50:03.270Z,48.30
2018-03-27T10:52:30.848Z,47.00
2018-03-27T10:54:58.426Z,47.40
2018-03-27T10:57:26.389Z,48.10
2018-03-27T10:59:53.942Z,48.10
2018-03-27T11:02:21.923Z,50.60
2018-03-27T11:04:49.900Z,49.80
2018-03-27T11:07:17.445Z,49.80
2018-03-27T11:09:45.399Z,49.70
2018-03-27T11:12:13.013Z,49.80
2018-03-27T11:14:40.573Z,50.80
2018-03-27T11:17:09.514Z,51.90
2018-03-27T11:19:37.053Z,51.90
2018-03-27T11:22:04.656Z,52.00
2018-03-27T11:24:32.287Z,52.60
2018-03-27T11:27:00.022Z,54.30
2018-03-27T11:29:27.690Z,53.20
2018-03-27T11:31:55.642Z,51.30
2018-03-27T11:34:23.191Z,51.20
2018-03-27T11:36:51.314Z,53.20
2018-03-27T11:39:18.881Z,52.10
2018-03-27T11:41:46.402Z,51.00
2018-03-27T11:44:13.972Z,48.80
2018-03-27T11:46:41.579Z,49.80
2018-03-27T11:49:09.559Z,48.70
2018-03-27T11:51:37.601Z,47.10
2018-03-27T11:54:05.192Z,47.10
2018-03-27T11:56:32.982Z,47.10
2018-03-27T11:59:00.572Z,47.80
2018-03-27T12:01:28.193Z,47.70
2018-03-27T12:03:55.762Z,46.90
2018-03-27T12:06:23.328Z,48.20
2018-03-27T12:08:50.918Z,50.10
2018-03-27T12:11:18.458Z,51.90
2018-03-27T12:13:46.031Z,51.20
2018-03-27T12:16:13.590Z,54.10
2018-03-27T12:18:41.190Z,54.20
2018-03-27T12:21:08.786Z,52.90
2018-03-27T12:23:36.393Z,54.30
2018-03-27T12:26:04.376Z,51.10
2018-03-27T12:28:33.299Z,51.10
2018-03-27T12:31:00.890Z,49.50
2018-03-27T12:33:28.480Z,49.50
2018-03-27T12:35:56.417Z,49.40
2018-03-27T12:38:23.977Z,49.40
2018-03-27T12:40:51.564Z,47.10
2018-03-27T12:43:19.206Z,48.30
2018-03-27T12:45:46.790Z,49.50
2018-03-27T12:48:14.744Z,45.50
2018-03-27T12:50:42.328Z,45.50
2018-03-27T12:53:10.299Z,37.60
2018-03-27T12:55:37.900Z,37.60
2018-03-27T12:58:05.622Z,37.70
2018-03-27T13:00:33.182Z,36.40
2018-03-27T13:03:01.277Z,36.60
2018-03-27T13:05:28.840Z,36.70
2018-03-27T13:07:56.390Z,35.80
2018-03-27T13:10:23.966Z,34.10
2018-03-27T13:12:51.518Z,32.80
2018-03-27T13:15:19.137Z,33.20
2018-03-27T13:17:46.678Z,35.80
2018-03-27T13:20:14.289Z,37.60
2018-03-27T13:22:41.840Z,39.10
2018-03-27T13:25:09.416Z,42.00
2018-03-27T13:27:36.995Z,40.30
2018-03-27T13:30:04.546Z,39.00
2018-03-27T13:32:32.151Z,40.30
2018-03-27T13:34:59.729Z,40.40
2018-03-27T13:37:27.669Z,44.60
2018-03-27T13:39:56.062Z,44.60
2018-03-27T13:42:23.651Z,45.80
2018-03-27T13:44:51.235Z,44.40
2018-03-27T13:47:18.825Z,44.90
2018-03-27T13:49:46.383Z,45.20
2018-03-27T13:52:13.938Z,47.90
2018-03-27T13:54:41.504Z,46.90
2018-03-27T13:57:09.073Z,47.20
2018-03-27T13:59:36.658Z,48.00
2018-03-27T14:02:04.597Z,49.30
2018-03-27T14:04:32.152Z,49.30
2018-03-27T14:06:59.768Z,48.10
2018-03-27T14:09:27.306Z,46.10
2018-03-27T14:11:55.260Z,45.90
2018-03-27T14:14:22.794Z,45.80
2018-03-27T14:16:50.333Z,48.40
2018-03-27T14:19:17.920Z,47.90
2018-03-27T14:21:45.487Z,49.30
2018-03-27T14:24:13.110Z,48.70
2018-03-27T14:26:40.688Z,49.90
2018-03-27T14:29:09.908Z,51.40
2018-03-27T14:31:37.701Z,50.20
2018-03-27T14:34:05.783Z,46.90
2018-03-27T14:36:33.411Z,46.90
2018-03-27T14:39:01.019Z,45.90
2018-03-27T14:41:29.278Z,46.70
2018-03-27T14:43:57.321Z,48.70
2018-03-27T14:46:24.896Z,48.70
2018-03-27T14:48:52.882Z,51.90
2018-03-27T14:51:20.519Z,52.00
2018-03-27T14:53:48.518Z,54.00
2018-03-27T14:56:16.154Z,54.10
2018-03-27T14:58:44.122Z,57.40
2018-03-27T15:01:12.166Z,58.60
2018-03-27T15:03:39.786Z,58.50
2018-03-27T15:06:07.921Z,59.50
2018-03-27T15:08:35.938Z,61.10
2018-03-27T15:11:03.509Z,61.10
2018-03-27T15:13:31.128Z,61.90
2018-03-27T15:15:58.660Z,62.20
2018-03-27T15:18:26.246Z,61.20
2018-03-27T15:20:54.441Z,61.80
2018-03-27T15:23:22.045Z,62.80
2018-03-27T15:25:49.669Z,63.10
2018-03-27T15:28:17.213Z,63.00
2018-03-27T15:30:45.774Z,63.90
2018-03-27T15:33:13.752Z,63.70
2018-03-27T15:35:41.748Z,63.90
2018-03-27T15:38:09.310Z,63.90
2018-03-27T15:40:36.871Z,63.60
2018-03-27T15:43:04.505Z,63.60
2018-03-27T15:45:32.088Z,63.20
2018-03-27T15:47:59.659Z,64.70
2018-03-27T15:50:27.255Z,64.60
2018-03-27T15:52:54.838Z,65.50
2018-03-27T15:55:22.766Z,66.60
2018-03-27T15:57:50.366Z,66.50
2018-03-27T16:00:18.469Z,67.30
2018-03-27T16:02:46.039Z,67.30
2018-03-27T16:05:13.625Z,67.60
2018-03-27T16:07:41.180Z,68.30
2018-03-27T16:10:08.812Z,68.30
2018-03-27T16:12:36.406Z,69.50
2018-03-27T16:15:04.009Z,71.80
2018-03-27T16:17:31.510Z,72.80
2018-03-27T16:19:59.291Z,72.20
2018-03-27T16:22:26.943Z,73.00
2018-03-27T16:24:54.549Z,74.00
2018-03-27T16:27:22.097Z,77.40
2018-03-27T16:29:50.266Z,78.10
2018-03-27T16:32:18.320Z,80.90
2018-03-27T16:34:45.965Z,80.90
2018-03-27T16:37:13.547Z,81.20
2018-03-27T16:39:41.134Z,82.20
2018-03-27T16:42:10.029Z,86.00
2018-03-27T16:44:37.989Z,88.30
2018-03-27T16:47:05.944Z,89.00
2018-03-27T16:49:33.520Z,89.00
2018-03-27T16:52:01.563Z,88.80
2018-03-27T16:54:29.166Z,88.80
2018-03-27T16:56:57.095Z,91.20
2018-03-27T16:59:24.678Z,91.20
2018-03-27T17:01:52.247Z,90.90
2018-03-27T17:04:19.848Z,91.30
2018-03-27T17:06:47.498Z,90.70
2018-03-27T17:09:15.080Z,89.00
2018-03-27T17:11:42.631Z,88.60
2018-03-27T17:14:10.209Z,88.40
2018-03-27T17:16:37.791Z,88.10
2018-03-27T17:19:05.948Z,89.10
2018-03-27T17:21:33.606Z,89.00
2018-03-27T17:24:01.171Z,89.40
2018-03-27T17:26:28.718Z,88.90
2018-03-27T17:28:56.287Z,89.40
2018-03-27T17:31:23.908Z,88.70
2018-03-27T17:33:51.853Z,87.40
2018-03-27T17:36:19.817Z,87.20
2018-03-27T17:38:47.782Z,87.40
2018-03-27T17:41:15.743Z,87.30
2018-03-27T17:43:43.311Z,87.30
2018-03-27T17:46:11.350Z,87.10
2018-03-27T17:48:38.916Z,87.10
2018-03-27T17:51:06.485Z,87.60
2018-03-27T17:53:34.614Z,86.30
2018-03-27T17:56:02.197Z,85.60
2018-03-27T17:58:29.747Z,85.30
2018-03-27T18:00:57.315Z,85.50
2018-03-27T18:03:25.021Z,86.00
2018-03-27T18:05:52.993Z,87.50
2018-03-27T18:08:20.582Z,87.50
2018-03-27T18:10:48.139Z,86.90
